Grissom ARB Airport Peru US
ICAO: KGUS
IATA: GUS
Category: Large
Scheduled Services: No

Elevation: 812 ft
TransAlt. 18000 ft.

Airport Communications:
APP:121.05
ATIS:108.45
CLNC DEL:120
DEP:121.05
GND:128.425
PMSV METRO:34.46
PTD:37.22
TWR:133.7

KGUS Zoom In..

If Map Doesn't Load, Click Here

Runways:

(A) RW 05 length 12501 ft width 200 ft
ILS 109.50 / hdg 46

(B) RW 23 length 12501 ft width 200 ft
ILS 109.50 / hdg 226

Location; KGUS
Day. 21 / Time. 14.56 Zulu
* Altimeter: 29.91
* Temperature: 23° c. 73.4°f.
* Wind from: 240° Speed 10 kn.
Dewpoint: 23° c.
Visibility: 10 Statute Miles.
Clouds: Few 6000 ft.
Clouds: Scattered 9500 ft.
Clouds: Overcast 12000 ft.

KGUS 211456Z 24010KT 10SM FEW060 SCT095 OVC120 23/23 A2991 RMK AO2A SLP126 P0007 60007 T02280228 50005 $


Wind From 240°
Speed 10 kn.

 
 
jpsmedia.com for Web Design worldairports.se 2018   terms of use